sensor_id;sensor_type;location;lat;lon;timestamp;pressure;altitude;pressure_sealevel;temperature;humidity
24996;BME280;13016;52.162;21.034;2024-01-10T00:01:52;102251.29;;;-0.90;42.45
24996;BME280;13016;52.162;21.034;2024-01-10T00:07:53;102238.64;;;-0.89;42.25
24996;BME280;13016;52.162;21.034;2024-01-10T00:13:59;102229.30;;;-1.00;42.28
24996;BME280;13016;52.162;21.034;2024-01-10T00:19:59;102226.98;;;-0.94;42.54
24996;BME280;13016;52.162;21.034;2024-01-10T00:25:59;102227.72;;;-0.91;42.70
24996;BME280;13016;52.162;21.034;2024-01-10T00:32:12;102224.86;;;-0.84;42.48
24996;BME280;13016;52.162;21.034;2024-01-10T00:38:13;102219.34;;;-0.83;42.31
24996;BME280;13016;52.162;21.034;2024-01-10T00:44:13;102231.26;;;-0.74;42.12
24996;BME280;13016;52.162;21.034;2024-01-10T00:50:13;102227.98;;;-0.73;41.99
24996;BME280;13016;52.162;21.034;2024-01-10T00:56:14;102226.52;;;-0.79;41.65
24996;BME280;13016;52.162;21.034;2024-01-10T01:02:14;102225.91;;;-0.73;41.80
24996;BME280;13016;52.162;21.034;2024-01-10T01:08:14;102226.04;;;-0.76;41.40
24996;BME280;13016;52.162;21.034;2024-01-10T01:14:15;102221.91;;;-0.73;41.40
24996;BME280;13016;52.162;21.034;2024-01-10T01:20:15;102215.27;;;-0.78;41.24
24996;BME280;13016;52.162;21.034;2024-01-10T01:26:15;102210.94;;;-0.77;41.32
24996;BME280;13016;52.162;21.034;2024-01-10T01:32:16;102200.46;;;-0.71;41.20
24996;BME280;13016;52.162;21.034;2024-01-10T01:38:16;102199.73;;;-0.74;41.38
24996;BME280;13016;52.162;21.034;2024-01-10T01:44:16;102189.30;;;-0.76;41.28
24996;BME280;13016;52.162;21.034;2024-01-10T01:50:16;102181.08;;;-0.81;41.54
24996;BME280;13016;52.162;21.034;2024-01-10T01:56:17;102179.04;;;-0.78;41.55
24996;BME280;13016;52.162;21.034;2024-01-10T02:02:17;102177.90;;;-0.60;41.57
24996;BME280;13016;52.162;21.034;2024-01-10T02:08:18;102178.20;;;-0.63;41.30
24996;BME280;13016;52.162;21.034;2024-01-10T02:14:19;102182.70;;;-0.64;41.23
24996;BME280;13016;52.162;21.034;2024-01-10T02:20:19;102179.42;;;-0.63;41.08
24996;BME280;13016;52.162;21.034;2024-01-10T02:26:19;102179.14;;;-0.58;40.98
24996;BME280;13016;52.162;21.034;2024-01-10T02:32:20;102174.09;;;-0.60;40.90
24996;BME280;13016;52.162;21.034;2024-01-10T02:38:20;102168.84;;;-0.76;41.09
24996;BME280;13016;52.162;21.034;2024-01-10T02:44:20;102166.86;;;-0.81;41.21
24996;BME280;13016;52.162;21.034;2024-01-10T02:50:20;102164.41;;;-0.83;41.00
24996;BME280;13016;52.162;21.034;2024-01-10T02:56:21;102155.85;;;-0.88;41.21
24996;BME280;13016;52.162;21.034;2024-01-10T03:02:21;102144.41;;;-0.89;41.32
24996;BME280;13016;52.162;21.034;2024-01-10T03:08:21;102135.26;;;-0.87;41.47
24996;BME280;13016;52.162;21.034;2024-01-10T03:14:21;102129.10;;;-0.93;41.43
24996;BME280;13016;52.162;21.034;2024-01-10T03:20:22;102117.85;;;-0.93;41.43
24996;BME280;13016;52.162;21.034;2024-01-10T03:26:23;102116.00;;;-1.00;41.66
24996;BME280;13016;52.162;21.034;2024-01-10T03:32:23;102111.05;;;-0.95;41.70
24996;BME280;13016;52.162;21.034;2024-01-10T03:38:23;102110.10;;;-1.02;41.81
24996;BME280;13016;52.162;21.034;2024-01-10T03:44:24;102109.63;;;-1.10;41.93
24996;BME280;13016;52.162;21.034;2024-01-10T03:50:24;102104.64;;;-1.08;41.88
24996;BME280;13016;52.162;21.034;2024-01-10T03:56:24;102105.96;;;-1.01;41.84
24996;BME280;13016;52.162;21.034;2024-01-10T04:02:24;102098.39;;;-1.10;41.82
24996;BME280;13016;52.162;21.034;2024-01-10T04:08:25;102091.31;;;-1.08;41.78
24996;BME280;13016;52.162;21.034;2024-01-10T04:14:25;102086.88;;;-1.03;41.79
24996;BME280;13016;52.162;21.034;2024-01-10T04:20:25;102077.95;;;-1.09;41.66
24996;BME280;13016;52.162;21.034;2024-01-10T04:26:25;102078.59;;;-1.13;41.63
24996;BME280;13016;52.162;21.034;2024-01-10T04:32:26;102075.40;;;-1.06;41.54
24996;BME280;13016;52.162;21.034;2024-01-10T04:38:27;102069.15;;;-1.08;41.48
24996;BME280;13016;52.162;21.034;2024-01-10T04:44:34;102068.91;;;-1.11;41.57
24996;BME280;13016;52.162;21.034;2024-01-10T05:02:56;102075.17;;;-1.09;41.67
24996;BME280;13016;52.162;21.034;2024-01-10T05:08:56;102076.30;;;-1.17;41.61
24996;BME280;13016;52.162;21.034;2024-01-10T05:19:24;102088.20;;;-1.08;41.79
24996;BME280;13016;52.162;21.034;2024-01-10T05:31:38;102078.04;;;-1.16;42.24
24996;BME280;13016;52.162;21.034;2024-01-10T05:37:38;102074.91;;;-1.16;42.25
24996;BME280;13016;52.162;21.034;2024-01-10T05:43:40;102076.73;;;-1.24;42.40
24996;BME280;13016;52.162;21.034;2024-01-10T05:49:45;102083.10;;;-1.12;42.13
24996;BME280;13016;52.162;21.034;2024-01-10T05:55:52;102082.80;;;-1.23;42.06
24996;BME280;13016;52.162;21.034;2024-01-10T06:07:40;102084.33;;;-1.11;41.94
24996;BME280;13016;52.162;21.034;2024-01-10T07:13:05;102084.45;;;-0.90;41.17
24996;BME280;13016;52.162;21.034;2024-01-10T09:16:10;102091.02;;;2.85;37.17
24996;BME280;13016;52.162;21.034;2024-01-10T10:29:35;102080.65;;;3.13;37.92
24996;BME280;13016;52.162;21.034;2024-01-10T10:35:58;102070.77;;;3.00;38.22
24996;BME280;13016;52.162;21.034;2024-01-10T10:48:48;102043.28;;;2.77;39.06
24996;BME280;13016;52.162;21.034;2024-01-10T11:01:18;102040.30;;;2.85;39.34
24996;BME280;13016;52.162;21.034;2024-01-10T11:07:22;102031.72;;;2.98;39.47
24996;BME280;13016;52.162;21.034;2024-01-10T11:26:38;102014.08;;;3.06;39.63
24996;BME280;13016;52.162;21.034;2024-01-10T11:32:39;102009.36;;;3.08;39.27
24996;BME280;13016;52.162;21.034;2024-01-10T11:39:09;102004.28;;;3.12;39.26
24996;BME280;13016;52.162;21.034;2024-01-10T11:45:57;101998.21;;;3.06;39.40
24996;BME280;13016;52.162;21.034;2024-01-10T11:52:21;101989.92;;;3.24;39.50
24996;BME280;13016;52.162;21.034;2024-01-10T11:59:11;101987.05;;;3.39;39.57
24996;BME280;13016;52.162;21.034;2024-01-10T12:40:37;101963.09;;;4.46;37.89
24996;BME280;13016;52.162;21.034;2024-01-10T12:47:18;101972.36;;;4.29;37.73
24996;BME280;13016;52.162;21.034;2024-01-10T12:53:39;101968.40;;;4.05;38.06
24996;BME280;13016;52.162;21.034;2024-01-10T13:29:56;101938.96;;;4.15;37.79
24996;BME280;13016;52.162;21.034;2024-01-10T13:35:58;101933.05;;;3.95;38.06
24996;BME280;13016;52.162;21.034;2024-01-10T13:42:41;101934.07;;;3.77;38.15
24996;BME280;13016;52.162;21.034;2024-01-10T13:49:28;101925.02;;;3.55;38.54
24996;BME280;13016;52.162;21.034;2024-01-10T13:56:13;101914.55;;;3.30;39.14
24996;BME280;13016;52.162;21.034;2024-01-10T14:02:19;101908.48;;;3.22;39.23
24996;BME280;13016;52.162;21.034;2024-01-10T14:08:40;101903.55;;;3.29;39.15
24996;BME280;13016;52.162;21.034;2024-01-10T14:15:07;101904.33;;;3.43;38.69
24996;BME280;13016;52.162;21.034;2024-01-10T14:36:04;101893.58;;;3.10;39.27
24996;BME280;13016;52.162;21.034;2024-01-10T15:10:39;101851.31;;;4.12;37.23
24996;BME280;13016;52.162;21.034;2024-01-10T15:16:40;101834.42;;;3.75;37.33
24996;BME280;13016;52.162;21.034;2024-01-10T15:22:42;101837.02;;;3.41;37.73
24996;BME280;13016;52.162;21.034;2024-01-10T15:28:43;101831.65;;;3.14;38.34
24996;BME280;13016;52.162;21.034;2024-01-10T15:34:44;101828.30;;;2.96;38.36
24996;BME280;13016;52.162;21.034;2024-01-10T15:40:47;101825.20;;;2.89;38.96
24996;BME280;13016;52.162;21.034;2024-01-10T15:46:50;101816.96;;;2.69;38.62
24996;BME280;13016;52.162;21.034;2024-01-10T15:53:27;101810.45;;;2.50;39.24
24996;BME280;13016;52.162;21.034;2024-01-10T15:59:28;101816.16;;;2.57;39.09
24996;BME280;13016;52.162;21.034;2024-01-10T16:18:43;101801.05;;;2.49;39.32
24996;BME280;13016;52.162;21.034;2024-01-10T16:25:07;101802.15;;;2.39;39.39
24996;BME280;13016;52.162;21.034;2024-01-10T17:24:26;101742.81;;;3.73;42.00
24996;BME280;13016;52.162;21.034;2024-01-10T17:36:42;101724.38;;;2.26;45.58
24996;BME280;13016;52.162;21.034;2024-01-10T17:42:42;101725.17;;;2.07;46.51
24996;BME280;13016;52.162;21.034;2024-01-10T17:48:59;101734.45;;;1.93;47.09
24996;BME280;13016;52.162;21.034;2024-01-10T17:55:21;101724.76;;;1.81;47.82
24996;BME280;13016;52.162;21.034;2024-01-10T18:01:20;101713.63;;;1.78;48.14
24996;BME280;13016;52.162;21.034;2024-01-10T18:07:21;101703.02;;;1.77;48.40
24996;BME280;13016;52.162;21.034;2024-01-10T18:13:23;101716.79;;;1.73;48.59
24996;BME280;13016;52.162;21.034;2024-01-10T18:19:23;101711.94;;;1.70;48.79
24996;BME280;13016;52.162;21.034;2024-01-10T18:25:42;101700.44;;;1.71;49.17
24996;BME280;13016;52.162;21.034;2024-01-10T18:31:42;101691.55;;;1.75;48.95
24996;BME280;13016;52.162;21.034;2024-01-10T18:37:49;101678.14;;;1.79;48.80
24996;BME280;13016;52.162;21.034;2024-01-10T19:08:03;101672.73;;;2.15;48.56
24996;BME280;13016;52.162;21.034;2024-01-10T19:14:04;101672.01;;;1.89;48.21
24996;BME280;13016;52.162;21.034;2024-01-10T19:20:05;101667.89;;;1.74;48.49
24996;BME280;13016;52.162;21.034;2024-01-10T19:26:06;101656.30;;;1.60;48.66
24996;BME280;13016;52.162;21.034;2024-01-10T19:32:15;101651.33;;;1.43;48.97
24996;BME280;13016;52.162;21.034;2024-01-10T20:00:31;101644.77;;;1.72;49.12
24996;BME280;13016;52.162;21.034;2024-01-10T20:06:51;101644.84;;;1.56;49.26
24996;BME280;13016;52.162;21.034;2024-01-10T20:12:55;101638.94;;;1.53;49.40
24996;BME280;13016;52.162;21.034;2024-01-10T20:18:59;101631.12;;;1.54;49.70
24996;BME280;13016;52.162;21.034;2024-01-10T20:25:10;101613.77;;;1.47;49.71
24996;BME280;13016;52.162;21.034;2024-01-10T20:31:37;101610.64;;;1.39;49.69
24996;BME280;13016;52.162;21.034;2024-01-10T20:37:38;101609.06;;;1.45;49.73
24996;BME280;13016;52.162;21.034;2024-01-10T20:43:49;101605.77;;;1.44;49.78
24996;BME280;13016;52.162;21.034;2024-01-10T20:49:59;101586.52;;;1.29;49.77
24996;BME280;13016;52.162;21.034;2024-01-10T20:56:02;101591.91;;;1.31;49.84
24996;BME280;13016;52.162;21.034;2024-01-10T21:02:12;101585.55;;;1.11;49.56
24996;BME280;13016;52.162;21.034;2024-01-10T21:22:42;101566.98;;;1.76;47.24
24996;BME280;13016;52.162;21.034;2024-01-10T21:28:43;101545.31;;;1.65;45.72
24996;BME280;13016;52.162;21.034;2024-01-10T21:34:43;101534.66;;;1.40;45.31
24996;BME280;13016;52.162;21.034;2024-01-10T21:40:44;101537.21;;;1.18;45.02
24996;BME280;13016;52.162;21.034;2024-01-10T21:53:22;101523.69;;;1.08;44.61
24996;BME280;13016;52.162;21.034;2024-01-10T21:59:22;101519.69;;;1.10;44.26
24996;BME280;13016;52.162;21.034;2024-01-10T22:05:25;101519.20;;;0.99;44.13
24996;BME280;13016;52.162;21.034;2024-01-10T22:11:26;101516.20;;;1.13;44.15
24996;BME280;13016;52.162;21.034;2024-01-10T22:24:07;101504.44;;;1.00;44.15
24996;BME280;13016;52.162;21.034;2024-01-10T22:36:59;101466.05;;;0.99;44.27
24996;BME280;13016;52.162;21.034;2024-01-10T22:42:59;101469.89;;;0.95;44.33
24996;BME280;13016;52.162;21.034;2024-01-10T22:49:07;101464.87;;;0.89;44.49
24996;BME280;13016;52.162;21.034;2024-01-10T22:55:18;101447.31;;;0.92;44.44
24996;BME280;13016;52.162;21.034;2024-01-10T23:01:19;101425.34;;;0.71;44.69
24996;BME280;13016;52.162;21.034;2024-01-10T23:07:19;101405.08;;;0.60;44.90
24996;BME280;13016;52.162;21.034;2024-01-10T23:13:44;101397.23;;;0.66;44.95
24996;BME280;13016;52.162;21.034;2024-01-10T23:19:45;101380.58;;;0.65;44.81
24996;BME280;13016;52.162;21.034;2024-01-10T23:25:45;101361.06;;;0.78;44.70
24996;BME280;13016;52.162;21.034;2024-01-10T23:31:58;101353.74;;;0.81;44.65
24996;BME280;13016;52.162;21.034;2024-01-10T23:38:20;101338.50;;;0.76;44.55
24996;BME280;13016;52.162;21.034;2024-01-10T23:51:03;101293.69;;;0.74;44.83
24996;BME280;13016;52.162;21.034;2024-01-10T23:57:31;101286.40;;;0.74;44.89
